createdAt,value
2017-08-15T00:04:01.035Z,90.90
2017-08-15T00:09:04.797Z,91.80
2017-08-15T00:14:07.448Z,90.60
2017-08-15T00:19:09.817Z,86.20
2017-08-15T00:24:11.931Z,86.50
2017-08-15T00:29:13.740Z,87.80
2017-08-15T00:34:16.977Z,88.20
2017-08-15T00:39:18.620Z,88.20
2017-08-15T00:44:20.291Z,88.70
2017-08-15T00:49:21.996Z,88.70
2017-08-15T00:54:24.328Z,87.60
2017-08-15T00:59:26.157Z,88.60
2017-08-15T01:04:28.356Z,87.50
2017-08-15T01:09:30.053Z,85.60
2017-08-15T01:14:31.794Z,87.50
2017-08-15T01:19:34.766Z,87.20
2017-08-15T01:24:37.705Z,86.10
2017-08-15T01:29:39.470Z,86.10
2017-08-15T01:34:41.350Z,85.50
2017-08-15T01:39:43.048Z,85.10
2017-08-15T01:44:45.379Z,84.80
2017-08-15T01:49:47.087Z,84.60
2017-08-15T01:54:48.759Z,84.50
2017-08-15T01:59:50.295Z,84.00
2017-08-15T02:04:52.716Z,88.40
2017-08-15T02:09:54.943Z,88.10
2017-08-15T02:14:56.624Z,89.80
2017-08-15T02:19:59.189Z,87.80
2017-08-15T02:25:00.979Z,84.70
2017-08-15T02:30:02.720Z,86.90
2017-08-15T02:35:04.755Z,86.40
2017-08-15T02:40:21.675Z,86.80
2017-08-15T02:45:38.710Z,88.30
2017-08-15T02:50:55.187Z,92.00
2017-08-15T02:56:12.717Z,89.20
2017-08-15T03:01:29.144Z,88.50
2017-08-15T03:06:46.509Z,86.90
2017-08-15T03:12:02.888Z,87.00
2017-08-15T03:17:20.745Z,87.10
2017-08-15T03:22:22.500Z,86.80
2017-08-15T03:27:24.202Z,86.90
2017-08-15T03:32:26.871Z,87.80
2017-08-15T03:37:30.771Z,89.00
2017-08-15T03:42:33.037Z,88.90
2017-08-15T03:47:34.653Z,91.30
2017-08-15T03:52:37.379Z,92.00
2017-08-15T03:57:40.072Z,93.00
2017-08-15T04:02:41.746Z,95.40
2017-08-15T04:07:47.500Z,95.00
2017-08-15T04:12:49.260Z,92.20
2017-08-15T04:17:50.962Z,92.70
2017-08-15T04:22:53.311Z,90.70
2017-08-15T04:27:55.124Z,92.80
2017-08-15T04:32:59.670Z,90.50
2017-08-15T04:38:01.953Z,91.20
2017-08-15T04:43:03.625Z,92.70
2017-08-15T04:48:05.913Z,92.00
2017-08-15T04:53:08.238Z,91.00
2017-08-15T04:58:10.487Z,92.50
2017-08-15T05:03:13.312Z,91.30
2017-08-15T05:08:18.924Z,90.40
2017-08-15T05:13:23.902Z,90.00
2017-08-15T05:18:26.568Z,90.40
2017-08-15T05:23:28.240Z,89.60
2017-08-15T05:28:29.877Z,91.00
2017-08-15T05:33:31.615Z,89.20
2017-08-15T05:38:33.849Z,86.40
2017-08-15T05:43:36.038Z,86.00
2017-08-15T05:48:37.864Z,84.70
2017-08-15T05:53:39.962Z,84.70
2017-08-15T05:58:41.588Z,83.20
2017-08-15T06:03:43.296Z,83.20
2017-08-15T06:08:45.875Z,82.10
2017-08-15T06:13:47.658Z,81.90
2017-08-15T06:18:49.305Z,79.60
2017-08-15T06:23:50.943Z,77.40
2017-08-15T06:28:52.604Z,76.10
2017-08-15T06:33:57.626Z,75.60
2017-08-15T06:38:59.903Z,75.40
2017-08-15T06:44:01.585Z,74.10
2017-08-15T06:49:03.263Z,76.10
2017-08-15T06:54:04.968Z,74.20
2017-08-15T06:59:06.710Z,72.40
2017-08-15T07:04:08.351Z,70.20
2017-08-15T07:09:10.054Z,69.20
2017-08-15T07:14:11.643Z,68.80
2017-08-15T07:19:13.399Z,67.20
2017-08-15T07:24:15.276Z,69.60
2017-08-15T07:29:17.510Z,67.10
2017-08-15T07:34:19.242Z,71.70
2017-08-15T07:39:21.114Z,69.10
2017-08-15T07:44:22.815Z,66.70
2017-08-15T07:49:25.086Z,67.60
2017-08-15T07:54:26.820Z,65.80
2017-08-15T07:59:28.444Z,65.00
2017-08-15T08:04:30.912Z,66.70
2017-08-15T08:09:32.584Z,65.00
2017-08-15T08:14:34.257Z,63.70
2017-08-15T08:19:35.930Z,62.40
2017-08-15T08:24:37.536Z,58.80
2017-08-15T08:29:39.204Z,55.20
2017-08-15T08:34:40.872Z,55.40
2017-08-15T08:39:42.564Z,55.40
2017-08-15T08:44:44.223Z,55.40
2017-08-15T08:49:45.787Z,54.80
2017-08-15T08:54:47.479Z,54.20
2017-08-15T08:59:49.169Z,55.10
2017-08-15T09:04:50.852Z,54.30
2017-08-15T09:09:52.438Z,51.70
2017-08-15T09:14:54.214Z,51.80
2017-08-15T09:19:55.811Z,50.60
2017-08-15T09:24:57.529Z,50.90
2017-08-15T09:29:59.215Z,49.70
2017-08-15T09:35:00.867Z,50.00
2017-08-15T09:40:02.535Z,49.00
2017-08-15T09:45:04.236Z,51.70
2017-08-15T09:50:05.897Z,49.20
2017-08-15T09:55:07.540Z,49.40
2017-08-15T10:00:09.240Z,46.70
2017-08-15T10:05:10.883Z,48.50
2017-08-15T10:10:12.593Z,48.50
2017-08-15T10:15:14.244Z,48.60
2017-08-15T10:20:15.940Z,44.90
2017-08-15T10:25:17.577Z,47.60
2017-08-15T10:30:19.251Z,45.90
2017-08-15T10:35:20.928Z,47.70
2017-08-15T10:40:22.600Z,47.80
2017-08-15T10:45:24.287Z,46.20
2017-08-15T10:50:26.088Z,46.50
2017-08-15T10:55:27.763Z,46.80
2017-08-15T11:00:29.444Z,47.30
2017-08-15T11:05:31.044Z,48.20
2017-08-15T11:10:32.724Z,47.40
2017-08-15T11:15:34.400Z,49.00
2017-08-15T11:20:36.221Z,46.60
2017-08-15T11:25:37.854Z,47.70
2017-08-15T11:30:39.519Z,46.20
2017-08-15T11:35:41.192Z,47.30
2017-08-15T11:40:42.865Z,47.20
2017-08-15T11:45:44.553Z,47.70
2017-08-15T11:50:46.207Z,45.50
2017-08-15T11:55:47.892Z,47.70
2017-08-15T12:00:49.561Z,48.30
2017-08-15T12:05:51.293Z,50.00
2017-08-15T12:10:53.936Z,50.20
2017-08-15T12:15:55.714Z,50.30
2017-08-15T12:20:57.371Z,51.30
2017-08-15T12:25:58.937Z,54.00
2017-08-15T12:31:00.694Z,71.90
2017-08-15T12:36:02.279Z,84.70
2017-08-15T12:41:04.976Z,83.30
2017-08-15T12:46:06.737Z,88.30
2017-08-15T12:51:08.410Z,93.70
2017-08-15T12:56:11.698Z,94.30
2017-08-15T13:01:14.111Z,85.80
2017-08-15T13:06:18.349Z,85.80
2017-08-15T13:11:21.236Z,81.00
2017-08-15T13:16:23.133Z,86.20
2017-08-15T13:21:25.925Z,85.40
2017-08-15T13:26:27.828Z,89.90
2017-08-15T13:31:29.357Z,82.80
2017-08-15T13:36:31.319Z,83.20
2017-08-15T13:41:32.936Z,76.30
2017-08-15T13:46:34.695Z,82.80
2017-08-15T13:51:36.369Z,81.10
2017-08-15T13:56:38.223Z,76.70
2017-08-15T14:01:39.918Z,75.60
2017-08-15T14:06:42.584Z,71.00
2017-08-15T14:11:44.741Z,71.50
2017-08-15T14:16:47.456Z,69.40
2017-08-15T14:21:49.375Z,62.40
2017-08-15T14:26:51.354Z,69.60
2017-08-15T14:31:53.847Z,75.00
2017-08-15T14:36:57.565Z,75.30
2017-08-15T14:41:59.445Z,76.70
2017-08-15T14:47:01.118Z,75.00
2017-08-15T14:52:03.100Z,78.10
2017-08-15T14:57:05.956Z,77.90
2017-08-15T15:02:09.429Z,77.10
2017-08-15T15:07:11.393Z,81.50
2017-08-15T15:12:13.745Z,79.60
2017-08-15T15:17:16.956Z,74.90
2017-08-15T15:22:18.841Z,74.90
2017-08-15T15:27:23.409Z,87.10
2017-08-15T15:32:25.287Z,87.80
2017-08-15T15:37:27.780Z,86.90
2017-08-15T15:42:29.628Z,86.50
2017-08-15T15:47:31.334Z,83.50
2017-08-15T15:52:36.825Z,86.00
2017-08-15T15:57:38.566Z,88.00
2017-08-15T16:02:40.239Z,88.80
2017-08-15T16:07:41.912Z,88.30
2017-08-15T16:12:44.612Z,86.70
2017-08-15T16:17:49.251Z,86.10
2017-08-15T16:22:50.897Z,86.00
2017-08-15T16:27:53.085Z,87.40
2017-08-15T16:32:55.444Z,84.50
2017-08-15T16:37:57.170Z,84.50
2017-08-15T16:43:00.686Z,84.10
2017-08-15T16:48:03.588Z,84.00
2017-08-15T16:53:05.236Z,82.20
2017-08-15T16:58:09.187Z,82.80
2017-08-15T17:03:11.064Z,81.40
2017-08-15T17:08:12.737Z,80.80
2017-08-15T17:13:21.102Z,79.20
2017-08-15T17:18:26.283Z,81.60
2017-08-15T17:23:31.880Z,84.60
2017-08-15T17:28:36.899Z,78.90
2017-08-15T17:33:47.019Z,79.30
2017-08-15T17:38:51.252Z,79.70
2017-08-15T17:43:54.398Z,81.60
2017-08-15T17:48:57.989Z,85.80
2017-08-15T17:54:01.287Z,77.50
2017-08-15T17:59:04.905Z,78.60
2017-08-15T18:04:08.272Z,78.50
2017-08-15T18:09:11.119Z,81.80
2017-08-15T18:14:18.366Z,80.70
2017-08-15T18:19:21.316Z,82.60
2017-08-15T18:24:25.044Z,82.20
2017-08-15T18:29:26.919Z,81.60
2017-08-15T18:34:30.635Z,81.60
2017-08-15T18:39:33.727Z,83.50
2017-08-15T18:44:37.120Z,85.40
2017-08-15T18:49:40.365Z,84.40
2017-08-15T18:54:43.068Z,84.50
2017-08-15T18:59:46.045Z,84.30
2017-08-15T19:04:49.706Z,83.20
2017-08-15T19:09:51.640Z,80.90
2017-08-15T19:14:55.707Z,80.10
2017-08-15T19:19:58.362Z,80.00
2017-08-15T19:25:01.298Z,75.80
2017-08-15T19:30:03.613Z,75.80
2017-08-15T19:35:06.045Z,75.70
2017-08-15T19:40:08.481Z,78.70
2017-08-15T19:45:12.102Z,78.80
2017-08-15T19:50:19.145Z,80.00
2017-08-15T19:55:23.813Z,77.80
2017-08-15T20:00:37.247Z,76.10
2017-08-15T20:05:39.225Z,75.40
2017-08-15T20:10:40.892Z,76.10
2017-08-15T20:15:42.801Z,76.80
2017-08-15T20:20:46.517Z,80.10
2017-08-15T20:25:48.192Z,81.50
2017-08-15T20:30:49.865Z,81.30
2017-08-15T20:35:51.538Z,82.70
2017-08-15T20:40:53.210Z,85.60
2017-08-15T20:45:56.012Z,85.10
2017-08-15T20:50:57.682Z,87.90
2017-08-15T20:55:59.355Z,87.50
2017-08-15T21:01:01.204Z,90.10
2017-08-15T21:06:04.135Z,91.00
2017-08-15T21:11:05.782Z,91.20
2017-08-15T21:16:08.168Z,90.10
2017-08-15T21:21:11.917Z,90.10
2017-08-15T21:26:14.818Z,88.80
2017-08-15T21:31:20.746Z,86.60
2017-08-15T21:36:23.017Z,85.30
2017-08-15T21:41:24.756Z,86.00
2017-08-15T21:46:26.835Z,86.10
2017-08-15T21:51:29.529Z,85.80
2017-08-15T21:56:32.843Z,85.90
2017-08-15T22:01:40.471Z,85.90
2017-08-15T22:06:43.456Z,86.40
2017-08-15T22:11:45.121Z,86.80
2017-08-15T22:16:46.806Z,87.90
2017-08-15T22:21:48.563Z,88.50
2017-08-15T22:26:50.252Z,89.10
2017-08-15T22:31:51.931Z,92.10
2017-08-15T22:36:57.898Z,96.20
2017-08-15T22:42:00.518Z,99.30
2017-08-15T22:47:02.266Z,99.90
2017-08-15T22:52:03.913Z,99.90
2017-08-15T22:57:08.276Z,99.90
2017-08-15T23:02:09.926Z,99.90
2017-08-15T23:07:12.440Z,99.90
2017-08-15T23:12:14.113Z,99.90
2017-08-15T23:17:16.807Z,99.90
2017-08-15T23:22:19.018Z,99.90
2017-08-15T23:27:20.741Z,99.90
2017-08-15T23:32:23.467Z,99.90
2017-08-15T23:37:25.139Z,99.90
2017-08-15T23:42:28.518Z,99.90
2017-08-15T23:47:31.966Z,99.90
2017-08-15T23:52:33.636Z,99.90
2017-08-15T23:57:35.284Z,99.90
